Carora, Venezuela
Current Conditions -  °F | °C
As of 1:00 PM on Saturday 25 Oct 2014 (Local Time) from SVBM Reporting Station
Thunderstorm Thunderstorm  
Wind Chill: 73°   Ceiling: 1600
Heat Index: 73°   Visibility: 4mi
Dew Point: 72°   Wind: 12mph
Humidity: 94%   Direction: 270°W
Pressure: 29.94"   Gusts: NA
Location:  10.19°N, 70.08°W
Report Text: SVBM 251700Z 27010KT 7000 TSDZ BKN016CB 23/22 Q1014
Loading
Personal Weather Stations






























Interactive Weather Map New forecast layout! Learn more

10-Day Weather Forecast

Advertisements
Track Severe Weather on mobile